Bookmark and Share
Track history (hours):
 

Texas City

More information available from US FCC via Universal Licensing System and Coast Guard Vessel Documentation Center.

Last reported at 2014-Apr-21 02:34 UTC. Time now 2014-Apr-21 03:13 UTC.
Position N 30°03' W 090°35'.

Length 28 m; draft 3 m.

Type: Tug. MMSI: 367135470.

NotesDate/timePositionNaut miles runAvg speedWind from/ knotsBaromVisibWave heightAir tempDewpointWater temp
2014-Apr-21 02:34N 30°03' W 090°35'0 0.0
2014-Apr-21 01:33N 30°03' W 090°35'0 0.0
2014-Apr-21 00:33N 30°03' W 090°35'0 0.0
2014-Apr-20 23:33N 30°03' W 090°35'0 0.0
2014-Apr-20 22:34N 30°03' W 090°35'0 0.0
2014-Apr-20 21:33N 30°03' W 090°35'0 0.0
2014-Apr-20 20:33N 30°03' W 090°35'0 0.0
2014-Apr-20 19:33N 30°03' W 090°35'0 0.0
2014-Apr-20 18:33N 30°03' W 090°35'0 0.0
2014-Apr-20 17:33N 30°03' W 090°35'0 0.0
2014-Apr-20 16:33N 30°03' W 090°35'1 1.4
2014-Apr-20 15:33N 30°02' W 090°37'1 1.4
2014-Apr-20 14:33N 30°03' W 090°35'0 0.0
2014-Apr-20 13:33N 30°03' W 090°35'0 0.0
2014-Apr-20 12:33N 30°03' W 090°35'0 0.0
2014-Apr-20 11:34N 30°03' W 090°35'0 0.0
2014-Apr-20 10:33N 30°03' W 090°35'0 0.0
2014-Apr-20 09:33N 30°03' W 090°35'0 0.0
2014-Apr-20 08:33N 30°03' W 090°35'0 0.0
2014-Apr-20 07:33N 30°03' W 090°35'0 0.0
2014-Apr-20 06:33N 30°03' W 090°35'0 0.0
2014-Apr-20 05:33N 30°03' W 090°35'0 0.0
2014-Apr-20 04:34N 30°03' W 090°35'0 0.0
2014-Apr-20 03:33N 30°03' W 090°35'0 0.0
2014-Apr-20 02:33N 30°03' W 090°35'0 0.0
2014-Apr-20 01:33N 30°03' W 090°35'0 0.0
2014-Apr-20 00:34N 30°03' W 090°35'0 0.0
2014-Apr-19 23:33N 30°03' W 090°35'0 0.0
2014-Apr-19 22:33N 30°03' W 090°35'0 0.0
2014-Apr-19 21:33N 30°03' W 090°35'0 0.0
2014-Apr-19 20:33N 30°03' W 090°35'0 0.0
2014-Apr-19 19:33N 30°03' W 090°35'0 0.0
2014-Apr-19 18:33N 30°03' W 090°35'0 0.0
2014-Apr-19 17:33N 30°03' W 090°35'7 7.4
2014-Apr-19 16:33N 30°01' W 090°44'0 0.0
2014-Apr-19 15:33N 30°01' W 090°44'0 0.0
2014-Apr-19 14:33N 30°01' W 090°44'5 4.4
2014-Apr-19 13:25N 30°03' W 090°38'3 3.0
2014-Apr-19 12:33N 30°03' W 090°35'0 0.0
2014-Apr-19 11:33N 30°03' W 090°35'0 0.0
2014-Apr-19 10:33N 30°03' W 090°35'0 0.0
2014-Apr-19 09:33N 30°03' W 090°35'0 0.0
2014-Apr-19 08:33N 30°03' W 090°35'0 0.0
2014-Apr-19 07:33N 30°03' W 090°35'0 0.0
2014-Apr-19 06:33N 30°03' W 090°35'0 0.0
2014-Apr-19 05:33N 30°03' W 090°35'0 0.0
2014-Apr-19 04:33N 30°03' W 090°35'0 0.0
2014-Apr-19 03:33N 30°03' W 090°35'0 0.0
2014-Apr-19 02:33N 30°03' W 090°35'0 0.0
2014-Apr-19 01:33N 30°03' W 090°35'0 0.0
2014-Apr-19 00:33N 30°03' W 090°35'0 0.0
2014-Apr-18 23:33N 30°03' W 090°35'0 0.0
2014-Apr-18 22:33N 30°03' W 090°35'0 0.0
2014-Apr-18 21:33N 30°03' W 090°35'0 0.0
2014-Apr-18 20:33N 30°03' W 090°35'1 0.5
2014-Apr-18 19:33N 30°03' W 090°36'0 0.2
2014-Apr-18 18:33N 30°03' W 090°36'0 0.3
2014-Apr-18 17:33N 30°03' W 090°35'1 1.4
2014-Apr-18 16:32N 30°02' W 090°37'0 0.0
2014-Apr-18 15:33N 30°02' W 090°37'0 0.0
2014-Apr-18 14:33N 30°02' W 090°37'1 1.4
2014-Apr-18 13:33N 30°03' W 090°35'0 0.0
2014-Apr-18 12:33N 30°03' W 090°35'0 0.0
2014-Apr-18 11:33N 30°03' W 090°35'0 0.0
2014-Apr-18 10:33N 30°03' W 090°35'0 0.0
2014-Apr-18 09:33N 30°03' W 090°35'0 0.0
2014-Apr-18 08:33N 30°03' W 090°35'0 0.0
2014-Apr-18 07:33N 30°03' W 090°35'0 0.1
2014-Apr-18 06:33N 30°03' W 090°35'0 0.1
2014-Apr-18 05:33N 30°03' W 090°35'0 0.1
2014-Apr-18 04:33N 30°03' W 090°35'0 0.0
2014-Apr-18 03:33N 30°03' W 090°35'0 0.0
2014-Apr-18 02:33N 30°03' W 090°35'0 0.0
2014-Apr-18 01:33N 30°03' W 090°35'0 0.0
2014-Apr-18 00:33N 30°03' W 090°35'0 0.0
2014-Apr-17 23:33N 30°03' W 090°35'0 0.0
2014-Apr-17 22:33N 30°03' W 090°35'0 0.0
2014-Apr-17 21:33N 30°03' W 090°35'0 0.0
2014-Apr-17 20:33N 30°03' W 090°35'0 0.0
2014-Apr-17 19:33N 30°03' W 090°35'0 0.0
2014-Apr-17 18:34N 30°03' W 090°35'0 0.0
2014-Apr-17 17:33N 30°03' W 090°35'0 0.0
2014-Apr-17 16:33N 30°03' W 090°35'1 0.6
2014-Apr-17 15:33N 30°03' W 090°36'0 0.5
2014-Apr-17 14:33N 30°03' W 090°36'0 0.1
2014-Apr-17 13:33N 30°03' W 090°36'0 0.2
2014-Apr-17 12:33N 30°03' W 090°35'0 0.0
2014-Apr-17 11:34N 30°03' W 090°35'0 0.1
2014-Apr-17 10:33N 30°03' W 090°35'0 0.0
2014-Apr-17 09:33N 30°03' W 090°35'0 0.0
2014-Apr-17 08:33N 30°03' W 090°35'0 0.0
2014-Apr-17 07:33N 30°03' W 090°35'0 0.0
2014-Apr-17 06:33N 30°03' W 090°35'0 0.0
2014-Apr-17 05:33N 30°03' W 090°35'0 0.0
2014-Apr-17 04:34N 30°03' W 090°35'0 0.0
2014-Apr-17 03:33N 30°03' W 090°35'0 0.0
2014-Apr-17 02:33N 30°03' W 090°35'0 0.0
2014-Apr-17 01:33N 30°03' W 090°35'0 0.0
2014-Apr-17 00:33N 30°03' W 090°35'0 0.0
2014-Apr-16 23:33N 30°03' W 090°35'0 0.0
2014-Apr-16 22:33N 30°03' W 090°35'0 0.4
2014-Apr-16 21:33N 30°03' W 090°36'  
2014-Apr-12 06:32N 29°59' W 090°49'4 4.5
2014-Apr-12 05:33N 30°01' W 090°44'4 4.4
2014-Apr-12 04:33N 30°03' W 090°40'3 3.5
2014-Apr-12 03:33N 30°03' W 090°36'0 0.0
2014-Apr-12 02:33N 30°03' W 090°36'0 0.0
2014-Apr-12 01:33N 30°03' W 090°36'0 0.0
2014-Apr-12 00:33N 30°03' W 090°36'0 0.0
2014-Apr-11 23:33N 30°03' W 090°36'0 0.0
2014-Apr-11 22:33N 30°03' W 090°36'0 0.0
2014-Apr-11 21:27N 30°03' W 090°36'0 0.0
2014-Apr-11 20:31N 30°03' W 090°36'0 0.0
2014-Apr-11 19:28N 30°03' W 090°36'0 0.0
2014-Apr-11 18:29N 30°03' W 090°36'0 0.0
2014-Apr-11 17:32N 30°03' W 090°36'0 0.0
2014-Apr-11 16:17N 30°03' W 090°36'0 0.0
2014-Apr-11 13:22N 30°03' W 090°36'0 0.0
2014-Apr-11 12:33N 30°03' W 090°36'0 0.0
2014-Apr-11 11:33N 30°03' W 090°36'0 0.0
2014-Apr-11 10:33N 30°03' W 090°36'0 0.0
2014-Apr-11 09:33N 30°03' W 090°36'0 0.0
2014-Apr-11 08:34N 30°03' W 090°36'0 0.0
2014-Apr-11 07:33N 30°03' W 090°36'0 0.4
2014-Apr-11 06:33N 30°02' W 090°36'0 0.0
2014-Apr-11 05:33N 30°02' W 090°36'0 0.0
2014-Apr-11 04:33N 30°02' W 090°36'0 0.0
2014-Apr-11 03:33N 30°02' W 090°36'  

Dump ship's entire track history

sailing weather and tide predictions

Texas City — WDD4983 — position and weather